Time;durP1;ratioP1;P1;durP2;ratioP2;P2;SDS_P1;SDS_P2;PMS_P1;PMS_P2;Temp;Humidity;BMP_temperature;BMP_pressure;BME280_temperature;BME280_humidity;BME280_pressure;Samples;Min_cycle;Max_cycle;Signal;HPM_P1;HPM_P2
2022/03/02 00:00:38;;;;;;;12.83;8.20;;;6.00;61.40;;;;;;5055321;28;20571;-68
2022/03/02 00:03:04;;;;;;;12.63;8.50;;;6.10;61.70;;;;;;5055164;28;20174;-67
2022/03/02 00:05:30;;;;;;;12.50;8.50;;;6.00;62.20;;;;;;5055379;28;20250;-67
2022/03/02 00:07:56;;;;;;;13.13;9.13;;;6.00;63.20;;;;;;5053649;28;20209;-69
2022/03/02 00:10:22;;;;;;;11.43;8.97;;;6.00;63.00;;;;;;5054942;28;20342;-68
2022/03/02 00:12:47;;;;;;;11.73;8.90;;;5.90;62.90;;;;;;5053539;28;20682;-68
2022/03/02 00:15:13;;;;;;;11.23;8.33;;;5.80;62.80;;;;;;5054099;28;20409;-67
2022/03/02 00:17:39;;;;;;;9.60;7.80;;;5.80;63.10;;;;;;5052288;28;20213;-69
2022/03/02 00:20:05;;;;;;;12.17;9.07;;;5.70;63.80;;;;;;5054137;28;20178;-69
2022/03/02 00:22:31;;;;;;;11.80;8.40;;;5.70;63.70;;;;;;5053463;28;20185;-69
2022/03/02 00:24:57;;;;;;;11.40;8.13;;;5.70;63.50;;;;;;5053939;28;20820;-67
2022/03/02 00:27:26;;;;;;;10.50;8.33;;;5.70;63.40;;;;;;5052485;28;20608;-68
2022/03/02 00:29:51;;;;;;;10.33;8.70;;;5.80;64.00;;;;;;5034058;28;20178;-68
2022/03/02 00:32:17;;;;;;;13.40;8.97;;;5.80;64.20;;;;;;5034050;28;20997;-69
2022/03/02 00:34:44;;;;;;;11.03;8.53;;;5.90;64.40;;;;;;5034071;28;20681;-69
2022/03/02 00:37:09;;;;;;;9.97;8.20;;;5.90;65.90;;;;;;5034078;28;20183;-69
2022/03/02 00:39:35;;;;;;;12.90;8.67;;;5.90;66.30;;;;;;5035020;28;20432;-68
2022/03/02 00:42:01;;;;;;;12.43;9.10;;;6.00;66.20;;;;;;5033596;28;20190;-69
2022/03/02 00:44:26;;;;;;;10.93;8.60;;;6.10;65.80;;;;;;5033769;28;20417;-68
2022/03/02 00:46:52;;;;;;;12.83;9.20;;;6.20;65.40;;;;;;5034021;28;20183;-68
2022/03/02 00:49:18;;;;;;;13.07;8.90;;;6.30;65.00;;;;;;5035397;28;20179;-69
2022/03/02 00:51:43;;;;;;;10.53;8.03;;;6.30;63.90;;;;;;5033557;28;20167;-68
2022/03/02 00:54:10;;;;;;;11.93;9.23;;;6.30;63.40;;;;;;5033742;28;20179;-68
2022/03/02 00:56:35;;;;;;;12.00;8.87;;;6.30;64.10;;;;;;5033750;28;20210;-69
2022/03/02 00:59:01;;;;;;;13.07;9.00;;;6.30;64.40;;;;;;5033612;28;20457;-69
2022/03/02 01:01:26;;;;;;;12.43;9.07;;;6.20;63.30;;;;;;5033970;28;20662;-67
2022/03/02 01:03:52;;;;;;;13.33;8.90;;;6.10;65.20;;;;;;5033710;28;20175;-67
2022/03/02 01:06:18;;;;;;;8.70;7.80;;;6.10;65.30;;;;;;5015573;28;20205;-69
2022/03/02 01:08:44;;;;;;;11.67;8.20;;;5.90;65.50;;;;;;5033343;28;20846;-68
2022/03/02 01:11:10;;;;;;;12.67;8.33;;;5.80;65.70;;;;;;5034764;28;20520;-68
2022/03/02 01:13:35;;;;;;;10.43;8.20;;;5.70;66.00;;;;;;5033203;28;20178;-67
2022/03/02 01:16:01;;;;;;;11.10;8.37;;;5.50;65.90;;;;;;5033327;28;20414;-67
2022/03/02 01:18:27;;;;;;;9.47;7.77;;;5.50;66.10;;;;;;5033529;28;20198;-67
2022/03/02 01:20:53;;;;;;;11.23;9.00;;;5.30;66.40;;;;;;5034199;28;20868;-67
2022/03/02 01:23:18;;;;;;;10.53;8.67;;;5.10;67.20;;;;;;5032884;28;20499;-67
2022/03/02 01:25:44;;;;;;;9.90;8.30;;;5.00;68.20;;;;;;5033100;28;20211;-69
2022/03/02 01:28:09;;;;;;;9.83;8.03;;;4.90;68.30;;;;;;5033019;28;20705;-67
2022/03/02 01:30:35;;;;;;;10.67;8.30;;;5.00;68.60;;;;;;5033211;28;20171;-68
2022/03/02 01:33:00;;;;;;;10.87;7.90;;;5.00;68.80;;;;;;5014599;28;20312;-67
2022/03/02 01:35:26;;;;;;;9.90;8.40;;;4.90;69.20;;;;;;5032807;28;20253;-68
2022/03/02 01:37:52;;;;;;;11.70;9.07;;;4.90;69.60;;;;;;5033183;28;20193;-68
2022/03/02 01:40:17;;;;;;;10.70;7.90;;;4.90;70.10;;;;;;5033130;28;20173;-67
2022/03/02 01:42:44;;;;;;;11.20;9.27;;;5.00;71.30;;;;;;5032736;28;20226;-67
2022/03/02 01:45:13;;;;;;;10.17;8.17;;;5.00;72.80;;;;;;5033674;28;20204;-67
2022/03/02 01:47:40;;;;;;;12.70;8.80;;;5.00;74.40;;;;;;5032497;28;20953;-67
2022/03/02 01:50:09;;;;;;;11.87;9.17;;;4.90;75.20;;;;;;5032990;28;20438;-68
2022/03/02 01:52:34;;;;;;;10.90;8.43;;;4.90;75.50;;;;;;5032923;28;20406;-68
2022/03/02 01:55:00;;;;;;;10.80;8.80;;;4.90;75.20;;;;;;5052502;28;20920;-68
2022/03/02 01:57:27;;;;;;;11.20;7.80;;;4.90;75.30;;;;;;5053018;28;20205;-67
2022/03/02 01:59:52;;;;;;;12.17;8.87;;;5.00;75.20;;;;;;5034921;28;20170;-68
2022/03/02 02:02:19;;;;;;;11.60;7.83;;;5.00;76.10;;;;;;5052247;28;20776;-67
2022/03/02 02:04:45;;;;;;;10.60;9.13;;;4.90;75.70;;;;;;5053536;28;20216;-68
2022/03/02 02:07:10;;;;;;;9.90;8.37;;;4.90;76.20;;;;;;5056265;28;20420;-67
2022/03/02 02:09:36;;;;;;;12.23;8.20;;;4.90;76.60;;;;;;5056341;28;20574;-67
2022/03/02 02:12:02;;;;;;;12.33;9.20;;;4.90;77.10;;;;;;5056312;28;20602;-68
2022/03/02 02:14:27;;;;;;;13.33;9.10;;;4.90;77.30;;;;;;5054588;28;20555;-68
2022/03/02 02:16:53;;;;;;;11.07;8.70;;;4.80;77.70;;;;;;5056299;28;20174;-68
2022/03/02 02:19:18;;;;;;;14.90;9.30;;;4.70;77.60;;;;;;5056403;28;20589;-68
2022/03/02 02:21:46;;;;;;;13.57;9.57;;;4.80;77.90;;;;;;5055910;28;20174;-68
2022/03/02 02:24:12;;;;;;;11.80;9.03;;;4.90;77.80;;;;;;5038522;28;20177;-69
2022/03/02 02:26:39;;;;;;;13.37;8.90;;;5.00;77.80;;;;;;5054065;28;20467;-69
2022/03/02 02:29:05;;;;;;;13.33;9.07;;;5.00;77.90;;;;;;5056301;28;20420;-68
2022/03/02 02:31:31;;;;;;;14.83;9.63;;;5.00;78.40;;;;;;5055856;28;20941;-67
2022/03/02 02:33:57;;;;;;;13.40;9.00;;;4.90;78.80;;;;;;5056040;28;20435;-68
2022/03/02 02:36:24;;;;;;;11.30;9.20;;;5.00;79.40;;;;;;5054201;28;20253;-68
2022/03/02 02:38:50;;;;;;;11.93;9.47;;;5.00;79.40;;;;;;5042473;28;20670;-68
2022/03/02 02:41:16;;;;;;;10.50;8.53;;;4.90;79.40;;;;;;5036046;28;20460;-67
2022/03/02 02:43:42;;;;;;;10.90;9.30;;;4.90;80.30;;;;;;5035874;28;20217;-68
2022/03/02 02:46:09;;;;;;;13.50;9.40;;;4.80;81.10;;;;;;5036277;28;20191;-68
2022/03/02 02:48:35;;;;;;;13.07;9.00;;;4.70;81.80;;;;;;5036899;28;20494;-69
2022/03/02 02:51:00;;;;;;;10.03;8.80;;;4.70;82.20;;;;;;5035983;28;20909;-68
2022/03/02 02:53:26;;;;;;;9.67;8.43;;;4.70;82.60;;;;;;5035907;28;20183;-69
2022/03/02 02:55:53;;;;;;;9.80;8.20;;;4.70;82.90;;;;;;5035945;28;20182;-69
2022/03/02 02:58:19;;;;;;;10.20;8.57;;;4.80;82.90;;;;;;5035227;28;20210;-68
2022/03/02 03:00:46;;;;;;;13.80;9.03;;;4.90;82.70;;;;;;5036672;28;20455;-68
2022/03/02 03:03:12;;;;;;;12.57;8.80;;;4.90;82.90;;;;;;5035637;28;20179;-68
2022/03/02 03:05:38;;;;;;;10.80;8.40;;;4.80;83.50;;;;;;5035886;28;20460;-68
2022/03/02 03:08:07;;;;;;;10.40;8.20;;;4.80;84.40;;;;;;5035502;28;20430;-68
2022/03/02 03:10:33;;;;;;;13.83;9.40;;;4.80;84.70;;;;;;5036910;28;20167;-67
2022/03/02 03:12:59;;;;;;;11.53;9.27;;;4.90;85.00;;;;;;5035259;28;20427;-68
2022/03/02 03:15:24;;;;;;;12.80;8.47;;;5.00;85.40;;;;;;5036352;28;20821;-68
2022/03/02 03:17:51;;;;;;;13.90;9.47;;;5.00;85.60;;;;;;5036396;28;20444;-68
2022/03/02 03:20:20;;;;;;;13.10;9.20;;;5.10;85.80;;;;;;5035368;28;20183;-68
2022/03/02 03:22:46;;;;;;;13.83;9.23;;;5.10;85.80;;;;;;5034508;28;20416;-69
2022/03/02 03:25:13;;;;;;;11.90;8.80;;;5.10;85.90;;;;;;5034974;28;20962;-69
2022/03/02 03:27:39;;;;;;;11.70;8.93;;;5.10;85.90;;;;;;5034734;28;20441;-66
2022/03/02 03:30:07;;;;;;;12.60;9.33;;;5.10;86.00;;;;;;5035380;28;20410;-67
2022/03/02 03:32:32;;;;;;;14.57;9.40;;;5.10;86.10;;;;;;5035867;28;20425;-66
2022/03/02 03:34:59;;;;;;;12.90;10.30;;;5.10;86.20;;;;;;5034874;28;20475;-69
2022/03/02 03:37:25;;;;;;;12.27;9.63;;;5.10;86.40;;;;;;5016786;28;20222;-67
2022/03/02 03:39:51;;;;;;;11.67;8.87;;;5.20;86.70;;;;;;5034820;28;20417;-68
2022/03/02 03:42:16;;;;;;;13.43;9.80;;;5.20;87.00;;;;;;5033922;28;20428;-68
2022/03/02 03:44:42;;;;;;;12.40;8.60;;;5.20;87.10;;;;;;5034623;28;20179;-68
2022/03/02 03:47:08;;;;;;;12.03;9.60;;;5.20;87.20;;;;;;5034806;28;20662;-69
2022/03/02 03:49:34;;;;;;;12.50;8.90;;;5.20;87.20;;;;;;5033965;28;20197;-67
2022/03/02 03:51:59;;;;;;;11.03;8.50;;;5.20;87.10;;;;;;5035493;28;20269;-68
2022/03/02 03:54:25;;;;;;;10.83;8.80;;;5.20;87.20;;;;;;5017941;28;20464;-68
2022/03/02 03:56:51;;;;;;;12.37;9.70;;;5.20;87.40;;;;;;5017172;28;20178;-68
2022/03/02 03:59:16;;;;;;;11.77;9.30;;;5.20;87.50;;;;;;5035648;28;20230;-67
2022/03/02 04:01:42;;;;;;;12.00;9.20;;;5.10;87.80;;;;;;5017105;28;20223;-68
2022/03/02 04:04:07;;;;;;;14.50;10.30;;;5.10;87.70;;;;;;5034605;28;20190;-69
2022/03/02 04:06:33;;;;;;;12.47;8.53;;;5.10;87.60;;;;;;5034600;28;20212;-69
2022/03/02 04:08:58;;;;;;;10.63;8.97;;;5.10;87.60;;;;;;5034157;28;20186;-69
2022/03/02 04:11:24;;;;;;;10.90;9.60;;;5.10;87.80;;;;;;5034436;28;20257;-68
2022/03/02 04:13:50;;;;;;;12.13;9.80;;;5.10;87.80;;;;;;5033733;28;20255;-70
2022/03/02 04:16:16;;;;;;;12.50;9.87;;;5.10;87.80;;;;;;5035504;28;20229;-68
2022/03/02 04:18:41;;;;;;;12.60;9.80;;;5.10;87.70;;;;;;5036153;28;20201;-68
2022/03/02 04:21:08;;;;;;;12.47;9.50;;;5.10;87.70;;;;;;5035280;28;20186;-67
2022/03/02 04:23:33;;;;;;;14.07;8.83;;;5.10;87.80;;;;;;5034834;28;20177;-68
2022/03/02 04:25:59;;;;;;;14.17;9.93;;;5.10;87.80;;;;;;5038491;28;20448;-67
2022/03/02 04:28:24;;;;;;;14.10;10.23;;;5.10;87.80;;;;;;5035614;28;20244;-68
2022/03/02 04:30:50;;;;;;;14.47;10.50;;;5.10;88.00;;;;;;5035496;28;20183;-68
2022/03/02 04:33:15;;;;;;;11.63;9.50;;;5.10;88.10;;;;;;5034456;28;20186;-67
2022/03/02 04:35:41;;;;;;;13.33;8.50;;;5.10;88.40;;;;;;5035256;28;20555;-67
2022/03/02 04:38:07;;;;;;;10.77;9.30;;;5.00;88.60;;;;;;5041598;28;20210;-68
2022/03/02 04:40:33;;;;;;;11.63;9.73;;;5.00;89.00;;;;;;5053582;28;20167;-68
2022/03/02 04:42:58;;;;;;;12.47;10.47;;;5.00;89.40;;;;;;5053921;28;20419;-68
2022/03/02 04:45:27;;;;;;;12.03;8.97;;;5.00;89.70;;;;;;5054536;28;20462;-68
2022/03/02 04:47:58;;;;;;;11.23;8.60;;;4.90;89.70;;;;;;5052389;28;20293;-67
2022/03/02 04:50:24;;;;;;;11.43;8.80;;;5.00;89.90;;;;;;5054124;28;20407;-67
2022/03/02 04:52:51;;;;;;;10.33;8.87;;;4.90;90.00;;;;;;5054352;28;20416;-68
2022/03/02 04:55:17;;;;;;;14.00;9.93;;;4.90;90.20;;;;;;5054556;28;21035;-68
2022/03/02 04:57:46;;;;;;;15.53;10.37;;;4.80;90.30;;;;;;5075900;22;20472;-68
2022/03/02 05:00:22;;;;;;;14.00;9.97;;;4.80;90.50;;;;;;5046936;28;20221;-67
2022/03/02 05:02:47;;;;;;;12.37;9.40;;;4.90;90.60;;;;;;5031871;28;20500;-68
2022/03/02 05:05:16;;;;;;;13.03;9.80;;;4.80;90.50;;;;;;5031962;28;20548;-69
2022/03/02 05:07:42;;;;;;;15.57;9.70;;;4.80;90.60;;;;;;5031648;28;20956;-69
2022/03/02 05:10:09;;;;;;;14.00;10.23;;;4.80;90.70;;;;;;5041276;28;20419;-68
2022/03/02 05:12:35;;;;;;;17.20;11.63;;;4.80;90.80;;;;;;5051771;28;20413;-68
2022/03/02 05:15:00;;;;;;;17.60;14.27;;;4.90;90.90;;;;;;5051922;28;20426;-68
2022/03/02 05:17:26;;;;;;;18.63;14.23;;;4.70;91.00;;;;;;5051556;28;20408;-69
2022/03/02 05:19:52;;;;;;;14.47;11.20;;;4.60;91.30;;;;;;5051356;28;20201;-70
2022/03/02 05:22:17;;;;;;;12.57;10.40;;;4.50;91.40;;;;;;5051439;28;20205;-70
2022/03/02 05:24:43;;;;;;;15.70;11.07;;;4.60;91.80;;;;;;5051474;28;20173;-69
2022/03/02 05:27:09;;;;;;;13.67;10.30;;;4.60;92.10;;;;;;5051581;28;20178;-68
2022/03/02 05:29:35;;;;;;;19.20;10.67;;;4.60;92.20;;;;;;5051378;28;20226;-69
2022/03/02 05:32:02;;;;;;;13.03;9.13;;;4.60;92.20;;;;;;5050807;28;20801;-69
2022/03/02 05:34:27;;;;;;;12.10;8.90;;;4.60;92.20;;;;;;5051702;28;20416;-70
2022/03/02 05:36:53;;;;;;;14.37;10.13;;;4.60;92.30;;;;;;5051386;28;20423;-69
2022/03/02 05:39:19;;;;;;;15.23;9.57;;;4.60;92.40;;;;;;5050198;28;20499;-69
2022/03/02 05:41:44;;;;;;;12.10;9.67;;;4.60;92.50;;;;;;5050748;28;20251;-69
2022/03/02 05:44:11;;;;;;;15.27;10.07;;;4.70;92.60;;;;;;5033320;28;20674;-69
2022/03/02 05:46:38;;;;;;;12.60;10.10;;;4.60;92.70;;;;;;5050903;28;20300;-68
2022/03/02 05:49:05;;;;;;;16.23;9.97;;;4.60;92.70;;;;;;5051048;28;20439;-69
2022/03/02 05:51:31;;;;;;;15.93;10.13;;;4.60;92.80;;;;;;5051143;28;20535;-70
2022/03/02 05:54:00;;;;;;;16.50;10.67;;;4.60;92.80;;;;;;5050988;28;20448;-69
2022/03/02 05:56:25;;;;;;;11.03;8.83;;;4.60;92.90;;;;;;5051147;28;20415;-68
2022/03/02 05:58:51;;;;;;;20.37;11.60;;;4.60;93.00;;;;;;5033366;28;20463;-69
2022/03/02 06:01:18;;;;;;;11.37;9.20;;;4.60;93.20;;;;;;5051389;28;20619;-69
2022/03/02 06:03:45;;;;;;;14.10;10.30;;;4.60;93.30;;;;;;5051032;28;20461;-70
2022/03/02 06:06:11;;;;;;;12.50;9.43;;;4.50;93.20;;;;;;5051110;28;20491;-70
2022/03/02 06:08:37;;;;;;;14.73;10.60;;;4.50;93.20;;;;;;5050994;28;20204;-69
2022/03/02 06:11:03;;;;;;;14.90;9.67;;;4.50;93.20;;;;;;5033529;28;20515;-69
2022/03/02 06:13:29;;;;;;;15.87;9.30;;;4.50;93.30;;;;;;5016312;28;20189;-69
2022/03/02 06:15:57;;;;;;;13.20;10.00;;;4.50;93.30;;;;;;5051255;28;20424;-69
2022/03/02 06:18:23;;;;;;;19.20;11.17;;;4.50;93.40;;;;;;5051126;28;20443;-69
2022/03/02 06:20:51;;;;;;;12.73;10.50;;;4.40;93.60;;;;;;5051152;28;20465;-69
2022/03/02 06:23:18;;;;;;;14.23;9.73;;;4.40;93.70;;;;;;5050338;28;20928;-69
2022/03/02 06:25:44;;;;;;;12.27;9.97;;;4.40;93.80;;;;;;5050610;28;20459;-68
2022/03/02 06:28:10;;;;;;;15.50;10.30;;;4.40;93.80;;;;;;5051153;28;20435;-69
2022/03/02 06:30:35;;;;;;;12.23;10.50;;;4.40;93.90;;;;;;5051712;28;20464;-69
2022/03/02 06:33:01;;;;;;;11.10;9.90;;;4.30;94.20;;;;;;5050787;28;20242;-69
2022/03/02 06:35:27;;;;;;;16.70;10.57;;;4.30;94.30;;;;;;5050912;28;20626;-69
2022/03/02 06:37:52;;;;;;;11.73;9.87;;;4.30;94.50;;;;;;5050576;28;20210;-70
2022/03/02 06:40:18;;;;;;;18.07;10.90;;;4.30;94.80;;;;;;5051176;28;20186;-70
2022/03/02 06:42:50;;;;;;;12.20;9.83;;;4.30;95.10;;;;;;5050526;28;20546;-69
2022/03/02 06:45:26;;;;;;;12.30;10.00;;;4.30;95.20;;;;;;5050690;28;20470;-68
2022/03/02 06:48:11;;;;;;;14.50;10.50;;;4.30;95.20;;;;;;5050576;28;20755;-68
2022/03/02 06:50:38;;;;;;;12.60;9.60;;;4.30;95.20;;;;;;5035017;28;20427;-68
2022/03/02 06:53:08;;;;;;;15.00;11.43;;;4.30;95.30;;;;;;5054186;28;20402;-69
2022/03/02 06:55:34;;;;;;;13.90;10.77;;;4.30;95.30;;;;;;5055241;28;20756;-69
2022/03/02 06:58:01;;;;;;;17.87;11.60;;;4.30;95.40;;;;;;5047648;28;20459;-69
2022/03/02 07:00:29;;;;;;;14.73;12.07;;;4.40;95.50;;;;;;5053008;28;20288;-69
2022/03/02 07:03:10;;;;;;;12.60;10.70;;;4.50;95.70;;;;;;5052171;28;20460;-68
2022/03/02 07:05:39;;;;;;;12.97;10.80;;;4.50;95.60;;;;;;5040607;28;20476;-68
2022/03/02 07:08:06;;;;;;;21.20;11.60;;;4.50;95.60;;;;;;5051332;28;20451;-68
2022/03/02 07:10:33;;;;;;;14.10;10.63;;;4.60;95.70;;;;;;5049920;28;20462;-68
2022/03/02 07:13:01;;;;;;;17.00;11.80;;;4.60;95.60;;;;;;5051231;28;20448;-66
2022/03/02 07:15:28;;;;;;;20.63;13.00;;;4.50;95.90;;;;;;5052465;28;21134;-70
2022/03/02 07:17:53;;;;;;;14.80;11.90;;;4.60;95.80;;;;;;5052710;28;20476;-68
2022/03/02 07:20:19;;;;;;;16.40;11.60;;;4.70;95.90;;;;;;5050974;28;20542;-69
2022/03/02 07:22:56;;;;;;;14.10;11.87;;;4.70;95.90;;;;;;5052615;28;20226;-68
2022/03/02 07:25:25;;;;;;;19.43;12.50;;;4.80;95.70;;;;;;5052553;28;20263;-68
2022/03/02 07:27:53;;;;;;;15.70;12.37;;;4.90;95.60;;;;;;5051950;28;20428;-68
2022/03/02 07:30:19;;;;;;;17.50;11.47;;;4.90;95.30;;;;;;5051882;28;20562;-68
2022/03/02 07:32:46;;;;;;;20.63;12.50;;;5.00;95.10;;;;;;5052766;28;20449;-69
2022/03/02 07:35:14;;;;;;;17.17;11.60;;;5.00;94.70;;;;;;5052348;28;21087;-69
2022/03/02 07:37:40;;;;;;;13.60;11.40;;;5.00;94.60;;;;;;5053005;28;20498;-69
2022/03/02 07:40:07;;;;;;;15.40;12.10;;;5.10;94.50;;;;;;5052910;28;20452;-70
2022/03/02 07:42:33;;;;;;;15.23;12.10;;;5.20;94.30;;;;;;5053904;28;20296;-69
2022/03/02 07:44:59;;;;;;;16.40;11.70;;;5.20;94.00;;;;;;5037402;28;20492;-68
2022/03/02 07:47:25;;;;;;;17.80;12.60;;;5.30;93.80;;;;;;5042235;28;20477;-69
2022/03/02 07:49:51;;;;;;;16.80;13.60;;;5.30;93.50;;;;;;5026506;28;20704;-68
2022/03/02 07:52:20;;;;;;;17.20;11.77;;;5.40;93.30;;;;;;5051973;28;20437;-69
2022/03/02 07:54:49;;;;;;;16.10;12.30;;;5.40;93.20;;;;;;5065021;28;20448;-69
2022/03/02 07:57:15;;;;;;;14.87;11.83;;;5.40;93.20;;;;;;5058368;28;20425;-69
2022/03/02 07:59:44;;;;;;;15.90;11.60;;;5.40;92.70;;;;;;5051249;28;20540;-69
2022/03/02 08:02:12;;;;;;;15.80;12.70;;;5.50;92.40;;;;;;5050620;28;20532;-68
2022/03/02 08:04:39;;;;;;;21.47;12.50;;;5.50;92.10;;;;;;5051423;28;20452;-68
2022/03/02 08:07:05;;;;;;;15.03;11.90;;;5.50;91.40;;;;;;5051522;28;20463;-68
2022/03/02 08:09:32;;;;;;;15.63;11.53;;;5.60;91.10;;;;;;5052017;28;20437;-68
2022/03/02 08:12:01;;;;;;;16.23;11.90;;;5.60;90.90;;;;;;5050998;28;20456;-68
2022/03/02 08:14:27;;;;;;;18.53;12.20;;;5.60;90.90;;;;;;5051055;28;20454;-68
2022/03/02 08:16:54;;;;;;;19.93;13.97;;;5.60;90.50;;;;;;5051186;28;20457;-68
2022/03/02 08:19:20;;;;;;;14.17;10.90;;;5.70;90.70;;;;;;5050087;28;20452;-69
2022/03/02 08:22:01;;;;;;;14.80;11.17;;;5.70;89.00;;;;;;5051058;28;20528;-68
2022/03/02 08:24:29;;;;;;;15.90;11.70;;;5.80;88.10;;;;;;5050692;28;20511;-69
2022/03/02 08:27:00;;;;;;;16.67;12.50;;;5.90;87.50;;;;;;5050210;28;20484;-69
2022/03/02 08:29:30;;;;;;;16.30;12.30;;;6.00;87.10;;;;;;5051117;28;20804;-68
2022/03/02 08:31:59;;;;;;;13.60;11.27;;;6.00;86.90;;;;;;5049742;28;20463;-68
2022/03/02 08:34:26;;;;;;;13.83;11.60;;;6.10;86.30;;;;;;5050736;28;20467;-69
2022/03/02 08:36:53;;;;;;;16.07;12.47;;;6.20;86.10;;;;;;5032684;28;20498;-67
2022/03/02 08:39:19;;;;;;;15.60;11.50;;;6.30;85.10;;;;;;5050333;28;21041;-68
2022/03/02 08:41:45;;;;;;;14.23;10.60;;;6.30;84.20;;;;;;5050129;28;20564;-68
2022/03/02 08:44:12;;;;;;;16.10;11.50;;;6.30;83.60;;;;;;5050080;28;20464;-69
2022/03/02 08:46:38;;;;;;;14.77;11.83;;;6.40;83.70;;;;;;5050292;28;20554;-68
2022/03/02 08:49:05;;;;;;;16.10;11.87;;;6.60;83.90;;;;;;5049612;28;20460;-68
2022/03/02 08:51:31;;;;;;;14.93;12.03;;;6.70;84.00;;;;;;5050426;28;20464;-69
2022/03/02 08:54:00;;;;;;;15.10;12.20;;;6.80;84.00;;;;;;5050451;28;20443;-67
2022/03/02 08:56:26;;;;;;;15.43;11.87;;;6.90;83.50;;;;;;5050099;28;20485;-69
2022/03/02 08:58:54;;;;;;;13.17;11.03;;;7.00;83.10;;;;;;5050409;28;20838;-68
2022/03/02 09:01:20;;;;;;;13.13;10.80;;;7.10;82.70;;;;;;5051431;28;20491;-68
2022/03/02 09:03:51;;;;;;;15.27;11.30;;;7.20;81.90;;;;;;5051086;28;20496;-69
2022/03/02 09:06:19;;;;;;;13.03;11.10;;;7.30;81.00;;;;;;5033951;28;20479;-69
2022/03/02 09:08:45;;;;;;;13.53;10.93;;;7.40;80.70;;;;;;5051465;28;20495;-69
2022/03/02 09:11:10;;;;;;;14.63;11.10;;;7.50;79.70;;;;;;5050944;28;20429;-69
2022/03/02 09:13:38;;;;;;;10.30;9.20;;;7.60;78.60;;;;;;5050490;28;20181;-68
2022/03/02 09:16:05;;;;;;;9.07;8.20;;;7.80;74.20;;;;;;5051220;28;20171;-69
2022/03/02 09:18:31;;;;;;;10.00;8.03;;;7.80;72.00;;;;;;5051087;28;20439;-68
2022/03/02 09:21:01;;;;;;;9.07;8.20;;;8.00;70.30;;;;;;5050939;28;20433;-68
2022/03/02 09:23:34;;;;;;;9.07;7.83;;;8.00;67.00;;;;;;5050684;28;20436;-68
2022/03/02 09:26:05;;;;;;;9.13;7.73;;;8.10;67.20;;;;;;5050991;28;20467;-69
2022/03/02 09:28:36;;;;;;;8.37;7.50;;;8.20;65.40;;;;;;5050857;28;20428;-68
2022/03/02 09:31:07;;;;;;;7.87;7.10;;;8.30;64.40;;;;;;5032879;28;20432;-68
2022/03/02 09:33:37;;;;;;;8.17;7.43;;;8.40;64.20;;;;;;5050808;28;20399;-69
2022/03/02 09:36:06;;;;;;;8.83;7.97;;;8.50;63.10;;;;;;5050946;28;20408;-68
2022/03/02 09:38:33;;;;;;;8.60;7.50;;;8.60;60.80;;;;;;5051012;28;20535;-68
2022/03/02 09:41:12;;;;;;;8.07;7.27;;;8.70;61.60;;;;;;5050639;28;20408;-68
2022/03/02 09:43:42;;;;;;;9.80;7.43;;;8.80;60.30;;;;;;5030550;28;20477;-68
2022/03/02 09:46:11;;;;;;;10.73;7.70;;;8.90;59.60;;;;;;5031091;28;20595;-68
2022/03/02 09:48:44;;;;;;;8.90;7.53;;;9.00;58.50;;;;;;5031100;28;20437;-70
2022/03/02 09:51:09;;;;;;;9.00;7.70;;;9.10;57.90;;;;;;5030903;28;20421;-69
2022/03/02 09:53:36;;;;;;;9.23;7.80;;;9.10;57.60;;;;;;5046642;28;20420;-68
2022/03/02 09:56:06;;;;;;;9.80;7.37;;;9.20;57.20;;;;;;5050725;28;20675;-69
2022/03/02 09:58:38;;;;;;;10.30;8.97;;;9.30;57.00;;;;;;5050530;28;20448;-68
2022/03/02 10:01:08;;;;;;;9.73;8.73;;;9.40;57.10;;;;;;5050570;28;20413;-68
2022/03/02 10:03:37;;;;;;;10.57;9.50;;;9.40;56.40;;;;;;5050301;28;20504;-68
2022/03/02 10:06:05;;;;;;;12.20;9.27;;;9.50;56.30;;;;;;5051036;28;20551;-68
2022/03/02 10:08:35;;;;;;;10.37;9.37;;;9.50;56.10;;;;;;5050434;28;20461;-69
2022/03/02 10:11:06;;;;;;;10.13;8.63;;;9.60;55.90;;;;;;5050693;28;20408;-69
2022/03/02 10:13:33;;;;;;;10.00;9.00;;;9.70;55.30;;;;;;5049698;28;20421;-69
2022/03/02 10:16:03;;;;;;;10.10;9.00;;;9.80;55.20;;;;;;5051017;28;20765;-69
2022/03/02 10:18:33;;;;;;;10.87;9.70;;;10.00;53.90;;;;;;5050784;28;20432;-69
2022/03/02 10:21:05;;;;;;;13.37;10.33;;;10.00;53.30;;;;;;5050954;28;20996;-69
2022/03/02 10:23:35;;;;;;;14.00;10.60;;;10.10;53.40;;;;;;5050141;28;20432;-68
2022/03/02 10:26:23;;;;;;;14.40;10.83;;;10.20;52.80;;;;;;5052853;28;20980;-68
2022/03/02 10:29:03;;;;;;;17.10;11.40;;;10.20;52.50;;;;;;5054300;28;20443;-69
2022/03/02 10:31:48;;;;;;;16.07;11.40;;;10.30;53.00;;;;;;5054532;28;20439;-68
2022/03/02 10:34:26;;;;;;;18.33;11.53;;;10.40;53.30;;;;;;5054368;28;20405;-69
2022/03/02 10:37:06;;;;;;;13.57;11.70;;;10.40;53.20;;;;;;5034419;28;20441;-68
2022/03/02 10:39:58;;;;;;;12.20;10.90;;;10.50;52.50;;;;;;5053568;28;20796;-69
2022/03/02 10:42:30;;;;;;;11.07;9.83;;;10.60;52.50;;;;;;5053676;28;20888;-69
2022/03/02 10:45:08;;;;;;;11.60;10.40;;;10.70;52.30;;;;;;5054063;28;20451;-69
2022/03/02 10:47:56;;;;;;;14.40;11.20;;;10.80;52.20;;;;;;5054212;28;20503;-69
2022/03/02 10:50:24;;;;;;;12.13;10.33;;;10.90;51.50;;;;;;5013187;28;20425;-69
2022/03/02 10:52:53;;;;;;;10.97;9.87;;;10.80;51.20;;;;;;5033414;28;20436;-68
2022/03/02 10:55:20;;;;;;;10.93;9.83;;;10.80;51.30;;;;;;5033616;28;20512;-68
2022/03/02 10:57:49;;;;;;;14.00;10.90;;;11.00;51.50;;;;;;5033795;28;20444;-67
2022/03/02 11:00:17;;;;;;;11.70;10.50;;;11.10;51.20;;;;;;5049673;28;20421;-70
2022/03/02 11:02:57;;;;;;;11.80;10.60;;;11.20;51.10;;;;;;5053395;28;20917;-70
2022/03/02 11:05:24;;;;;;;9.97;8.97;;;11.30;51.00;;;;;;5053663;28;20854;-69
2022/03/02 11:07:50;;;;;;;10.10;8.87;;;11.30;50.40;;;;;;5053072;28;20423;-69
2022/03/02 11:10:19;;;;;;;11.07;9.90;;;11.30;50.30;;;;;;5053564;28;20456;-68
2022/03/02 11:12:47;;;;;;;12.23;10.20;;;11.20;49.90;;;;;;5053250;28;20409;-68
2022/03/02 11:15:14;;;;;;;11.23;10.03;;;11.10;49.30;;;;;;5053777;28;20758;-69
2022/03/02 11:18:01;;;;;;;11.63;9.63;;;11.10;48.50;;;;;;5053390;28;21000;-69
2022/03/02 11:20:30;;;;;;;10.30;9.40;;;11.20;49.30;;;;;;5053389;28;20836;-68
2022/03/02 11:23:05;;;;;;;10.43;9.43;;;11.30;49.70;;;;;;5052947;28;20416;-69
2022/03/02 11:25:51;;;;;;;9.70;8.70;;;11.40;49.50;;;;;;5053376;28;20459;-69
2022/03/02 11:28:20;;;;;;;10.53;9.33;;;11.50;49.90;;;;;;5053581;28;20429;-69
2022/03/02 11:30:51;;;;;;;11.33;9.30;;;11.40;48.80;;;;;;5053614;28;20474;-69
2022/03/02 11:33:21;;;;;;;10.50;9.40;;;11.30;47.20;;;;;;5053227;28;20508;-69
2022/03/02 11:35:47;;;;;;;10.90;9.80;;;11.40;48.40;;;;;;5052488;28;20487;-69
2022/03/02 11:38:19;;;;;;;9.67;8.70;;;11.50;48.60;;;;;;5052795;28;20460;-68
2022/03/02 11:40:49;;;;;;;9.77;8.77;;;11.50;49.00;;;;;;5056948;28;20170;-69
2022/03/02 11:43:19;;;;;;;9.80;8.80;;;11.60;48.70;;;;;;5055473;28;20425;-68
2022/03/02 11:45:45;;;;;;;10.50;8.80;;;11.70;48.60;;;;;;5056832;28;20456;-68
2022/03/02 11:48:13;;;;;;;10.33;8.90;;;11.70;49.20;;;;;;5052901;28;20421;-69
2022/03/02 11:50:59;;;;;;;9.50;8.57;;;11.70;49.10;;;;;;5052914;28;20541;-71
2022/03/02 11:53:39;;;;;;;9.73;8.73;;;11.80;48.50;;;;;;5052024;28;21021;-71
2022/03/02 11:56:07;;;;;;;9.37;8.40;;;11.70;47.90;;;;;;5054678;28;20415;-70
2022/03/02 11:59:11;;;;;;;10.70;9.00;;;11.50;49.70;;;;;;5053578;28;20941;-70
2022/03/02 12:01:42;;;;;;;11.63;9.30;;;11.30;47.80;;;;;;5051655;28;20429;-69
2022/03/02 12:04:09;;;;;;;11.77;9.13;;;11.20;48.00;;;;;;5052590;28;20424;-69
2022/03/02 12:06:41;;;;;;;10.67;9.47;;;11.30;49.20;;;;;;5052985;28;20537;-68
2022/03/02 12:09:07;;;;;;;13.00;8.63;;;11.40;49.20;;;;;;5035783;28;20443;-69
2022/03/02 12:11:35;;;;;;;9.33;8.43;;;11.40;48.90;;;;;;5052323;28;20480;-68
2022/03/02 12:14:08;;;;;;;13.00;9.70;;;11.50;48.90;;;;;;5051775;28;20224;-68
2022/03/02 12:16:41;;;;;;;8.67;7.77;;;11.50;48.80;;;;;;5052538;28;20413;-67
2022/03/02 12:19:20;;;;;;;9.13;8.23;;;11.60;48.20;;;;;;5052360;28;20436;-69
2022/03/02 12:21:45;;;;;;;8.10;7.30;;;11.60;48.60;;;;;;5052089;28;20888;-68
2022/03/02 12:24:12;;;;;;;11.10;7.53;;;11.60;47.90;;;;;;5051966;28;20421;-68
2022/03/02 12:26:45;;;;;;;8.93;8.03;;;11.60;48.10;;;;;;5051820;28;20194;-69
2022/03/02 12:29:11;;;;;;;10.87;8.20;;;11.70;48.70;;;;;;5049883;28;20460;-69
2022/03/02 12:31:36;;;;;;;9.60;8.60;;;11.70;47.40;;;;;;5053261;28;20515;-67
2022/03/02 12:34:15;;;;;;;8.27;7.47;;;11.50;46.70;;;;;;5051462;28;20945;-68
2022/03/02 12:36:42;;;;;;;8.93;8.03;;;11.60;47.30;;;;;;5050575;28;20288;-67
2022/03/02 12:39:08;;;;;;;7.77;7.00;;;11.60;47.00;;;;;;5050805;28;20976;-68
2022/03/02 12:41:36;;;;;;;9.60;7.73;;;11.60;47.10;;;;;;5050522;28;20969;-68
2022/03/02 12:44:02;;;;;;;9.10;8.10;;;11.60;46.70;;;;;;5050798;28;20445;-69
2022/03/02 12:46:27;;;;;;;9.47;7.60;;;11.40;45.30;;;;;;5051313;28;20988;-68